Time;durP1;ratioP1;P1;durP2;ratioP2;P2;SDS_P1;SDS_P2;PMS_P1;PMS_P2;Temp;Humidity;BMP_temperature;BMP_pressure;BME280_temperature;BME280_humidity;BME280_pressure;Samples;Min_cycle;Max_cycle;Signal;HPM_P1;HPM_P2
2023/02/12 00:01:50;;;;;;;;;;;18.20;44.30;;;;;;5000787;28;20060;-74
2023/02/12 00:04:15;;;;;;;;;;;18.00;44.10;;;;;;5002154;28;20129;-72
2023/02/12 00:06:41;;;;;;;;;;;18.00;44.50;;;;;;5002226;28;19944;-76
2023/02/12 00:09:06;;;;;;;;;;;17.80;44.60;;;;;;5002189;28;19909;-74
2023/02/12 00:11:33;;;;;;;;;;;17.70;45.00;;;;;;5001993;28;19948;-76
2023/02/12 00:14:00;;;;;;;;;;;17.70;45.20;;;;;;5000739;28;19905;-75
2023/02/12 00:16:27;;;;;;;;;;;17.50;45.20;;;;;;5002024;28;19944;-76
2023/02/12 00:18:54;;;;;;;;;;;17.50;45.50;;;;;;5001841;28;19937;-74
2023/02/12 00:21:19;;;;;;;;;;;17.40;45.70;;;;;;5000661;28;19906;-74
2023/02/12 00:23:45;;;;;;;;;;;17.40;45.90;;;;;;5001952;28;19940;-76
2023/02/12 00:26:12;;;;;;;;;;;17.30;45.90;;;;;;5001894;28;19917;-73
2023/02/12 00:28:38;;;;;;;;;;;17.30;46.00;;;;;;5001817;28;20003;-75
2023/02/12 00:31:08;;;;;;;;;;;17.20;46.10;;;;;;5001738;28;20197;-74
2023/02/12 00:33:33;;;;;;;;;;;17.20;46.20;;;;;;5001701;28;19909;-75
2023/02/12 00:35:59;;;;;;;;;;;17.20;46.30;;;;;;5000458;28;19959;-75
2023/02/12 00:38:24;;;;;;;;;;;17.20;46.20;;;;;;5000329;28;19909;-73
2023/02/12 00:40:50;;;;;;;;;;;17.30;46.20;;;;;;5001610;28;19905;-74
2023/02/12 00:43:16;;;;;;;;;;;17.40;46.10;;;;;;5001573;28;19929;-75
2023/02/12 00:45:43;;;;;;;;;;;17.50;45.90;;;;;;5001723;28;19973;-72
2023/02/12 00:48:08;;;;;;;;;;;17.60;45.80;;;;;;5001699;28;20150;-75
2023/02/12 00:50:34;;;;;;;;;;;17.70;45.50;;;;;;5001843;28;19922;-74
2023/02/12 00:52:59;;;;;;;;;;;17.80;45.30;;;;;;5000345;28;19914;-76
2023/02/12 00:55:25;;;;;;;;;;;17.90;45.20;;;;;;5001604;28;20189;-74
2023/02/12 00:57:50;;;;;;;;;;;17.90;45.10;;;;;;5001526;28;20201;-76
2023/02/12 01:00:16;;;;;;;;;;;17.90;45.00;;;;;;5001443;28;20228;-76
2023/02/12 01:02:42;;;;;;;;;;;18.00;45.00;;;;;;5001544;28;19977;-74
2023/02/12 01:05:07;;;;;;;;;;;18.00;44.80;;;;;;5003921;28;20236;-76
2023/02/12 01:07:33;;;;;;;;;;;18.10;44.80;;;;;;5004093;28;19910;-75
2023/02/12 01:09:58;;;;;;;;;;;18.20;44.70;;;;;;5005401;28;19913;-75
2023/02/12 01:12:24;;;;;;;;;;;18.20;44.60;;;;;;5005133;28;20216;-76
2023/02/12 01:14:49;;;;;;;;;;;18.20;44.50;;;;;;5005141;28;20105;-72
2023/02/12 01:17:15;;;;;;;;;;;18.20;44.40;;;;;;5003759;28;20100;-75
2023/02/12 01:19:41;;;;;;;;;;;18.20;44.40;;;;;;5003612;28;20190;-74
2023/02/12 01:22:06;;;;;;;;;;;18.20;44.40;;;;;;5004933;28;19976;-76
2023/02/12 01:24:32;;;;;;;;;;;18.30;44.50;;;;;;5004938;28;19920;-75
2023/02/12 01:26:57;;;;;;;;;;;18.30;44.40;;;;;;5004849;28;20213;-74
2023/02/12 01:29:23;;;;;;;;;;;18.30;44.30;;;;;;5004764;28;19909;-75
2023/02/12 01:31:48;;;;;;;;;;;18.30;44.20;;;;;;5004620;28;19980;-76
2023/02/12 01:34:14;;;;;;;;;;;18.30;44.00;;;;;;5004635;28;19910;-76
2023/02/12 01:36:39;;;;;;;;;;;18.30;44.20;;;;;;5004687;28;19916;-73
2023/02/12 01:39:05;;;;;;;;;;;18.20;44.20;;;;;;5004359;28;19948;-73
2023/02/12 01:41:35;;;;;;;;;;;18.10;44.30;;;;;;5004572;28;19902;-75
2023/02/12 01:44:19;;;;;;;;;;;18.00;44.60;;;;;;5004482;28;19916;-76
2023/02/12 01:46:46;;;;;;;;;;;17.80;44.70;;;;;;5004514;28;19909;-76
2023/02/12 01:49:15;;;;;;;;;;;17.70;45.00;;;;;;5004468;28;19909;-76
2023/02/12 01:51:41;;;;;;;;;;;17.60;45.20;;;;;;5004537;28;19914;-75
2023/02/12 01:54:08;;;;;;;;;;;17.50;45.40;;;;;;5004445;28;19902;-76
2023/02/12 01:56:34;;;;;;;;;;;17.50;45.60;;;;;;5004315;28;19940;-76
2023/02/12 01:59:00;;;;;;;;;;;17.40;45.70;;;;;;5003731;28;19909;-76
2023/02/12 02:01:27;;;;;;;;;;;17.40;45.80;;;;;;5004167;28;20197;-75
2023/02/12 02:03:54;;;;;;;;;;;17.40;45.90;;;;;;5004336;28;19921;-75
2023/02/12 02:06:46;;;;;;;;;;;17.30;45.90;;;;;;5003043;28;19977;-76
2023/02/12 02:09:12;;;;;;;;;;;17.30;45.90;;;;;;4988811;28;19901;-76
2023/02/12 02:14:31;;;;;;;;;;;17.30;46.10;;;;;;5003809;28;20200;-76
2023/02/12 02:16:59;;;;;;;;;;;17.40;46.00;;;;;;5003832;28;20187;-75
2023/02/12 02:19:30;;;;;;;;;;;17.50;45.90;;;;;;5003724;28;19920;-74
2023/02/12 02:22:16;;;;;;;;;;;17.60;45.90;;;;;;5003832;28;19910;-75
2023/02/12 02:24:50;;;;;;;;;;;17.70;45.60;;;;;;5003652;28;20109;-76
2023/02/12 02:27:42;;;;;;;;;;;17.80;45.40;;;;;;5003625;28;19916;-74
2023/02/12 02:30:07;;;;;;;;;;;17.90;45.10;;;;;;5001589;28;19908;-75
2023/02/12 02:32:51;;;;;;;;;;;17.90;45.00;;;;;;5003562;28;19909;-74
2023/02/12 02:35:24;;;;;;;;;;;17.90;45.00;;;;;;5003359;28;20109;-76
2023/02/12 02:37:49;;;;;;;;;;;17.90;44.80;;;;;;5003455;28;20021;-72
2023/02/12 02:40:18;;;;;;;;;;;18.00;44.70;;;;;;5003337;28;19914;-75
2023/02/12 02:42:53;;;;;;;;;;;18.10;44.70;;;;;;5003230;28;19909;-75
2023/02/12 02:45:28;;;;;;;;;;;18.10;44.60;;;;;;5003307;28;19909;-76
2023/02/12 02:48:02;;;;;;;;;;;18.20;44.60;;;;;;5003219;28;19980;-75
2023/02/12 02:50:28;;;;;;;;;;;18.20;44.50;;;;;;5003199;28;20249;-75
2023/02/12 02:53:03;;;;;;;;;;;18.10;44.30;;;;;;5002855;28;19922;-73
2023/02/12 02:55:32;;;;;;;;;;;18.10;44.40;;;;;;5003174;28;19910;-75
2023/02/12 02:58:10;;;;;;;;;;;18.20;44.50;;;;;;5003006;28;20317;-76
2023/02/12 03:00:35;;;;;;;;;;;18.20;44.50;;;;;;5002920;28;19912;-74
2023/02/12 03:03:04;;;;;;;;;;;18.20;44.50;;;;;;5002906;28;19941;-76
2023/02/12 03:05:34;;;;;;;;;;;18.30;44.40;;;;;;5002916;28;19910;-73
2023/02/12 03:08:05;;;;;;;;;;;18.30;44.30;;;;;;5002848;28;19975;-76
2023/02/12 03:10:33;;;;;;;;;;;18.30;44.20;;;;;;5002693;28;19909;-75
2023/02/12 03:13:02;;;;;;;;;;;18.30;44.20;;;;;;5002913;28;19905;-76
2023/02/12 03:15:39;;;;;;;;;;;18.30;44.30;;;;;;5002751;28;19909;-75
2023/02/12 03:18:08;;;;;;;;;;;18.30;44.30;;;;;;5002751;28;19906;-75
2023/02/12 03:20:36;;;;;;;;;;;18.30;44.20;;;;;;5002465;28;19905;-76
2023/02/12 03:23:07;;;;;;;;;;;18.30;44.20;;;;;;5002486;28;19909;-75
2023/02/12 03:25:37;;;;;;;;;;;18.40;44.20;;;;;;5002520;28;19910;-74
2023/02/12 03:28:08;;;;;;;;;;;18.30;44.10;;;;;;5001876;28;19976;-76
2023/02/12 03:30:40;;;;;;;;;;;18.20;44.10;;;;;;5002438;28;19944;-76
2023/02/12 03:33:27;;;;;;;;;;;18.20;44.30;;;;;;5002434;28;19913;-73
2023/02/12 03:36:02;;;;;;;;;;;18.00;44.50;;;;;;4996075;28;19992;-75
2023/02/12 03:38:33;;;;;;;;;;;17.90;44.80;;;;;;5002366;28;19908;-75
2023/02/12 03:41:03;;;;;;;;;;;17.80;45.00;;;;;;5002161;28;19906;-75
2023/02/12 03:43:37;;;;;;;;;;;17.70;45.20;;;;;;5002357;28;20079;-75
2023/02/12 03:46:10;;;;;;;;;;;17.70;45.40;;;;;;5002357;28;20213;-74
2023/02/12 03:48:41;;;;;;;;;;;17.50;45.50;;;;;;5002099;28;19977;-75
2023/02/12 03:51:19;;;;;;;;;;;17.50;45.70;;;;;;5002287;28;19980;-76
2023/02/12 03:53:46;;;;;;;;;;;17.40;45.80;;;;;;5002118;28;20193;-77
2023/02/12 03:56:13;;;;;;;;;;;17.40;45.90;;;;;;5002310;28;19910;-75
2023/02/12 03:58:40;;;;;;;;;;;17.40;46.00;;;;;;5002069;28;19996;-75
2023/02/12 04:01:06;;;;;;;;;;;17.30;46.00;;;;;;5001949;28;20153;-76
2023/02/12 04:03:32;;;;;;;;;;;17.20;46.10;;;;;;5002032;28;19928;-74
2023/02/12 04:05:58;;;;;;;;;;;17.30;46.10;;;;;;5001852;28;19944;-74
2023/02/12 04:08:24;;;;;;;;;;;17.30;46.10;;;;;;5000650;28;19952;-74
2023/02/12 04:11:02;;;;;;;;;;;17.40;46.00;;;;;;5001906;28;19908;-76
2023/02/12 04:13:32;;;;;;;;;;;17.50;45.90;;;;;;5001810;28;19910;-76
2023/02/12 04:16:06;;;;;;;;;;;17.60;45.80;;;;;;5001985;28;19969;-74
2023/02/12 04:18:31;;;;;;;;;;;17.70;45.60;;;;;;5001756;28;19972;-75
2023/02/12 04:21:06;;;;;;;;;;;17.80;45.40;;;;;;5001667;28;20229;-76
2023/02/12 04:23:47;;;;;;;;;;;17.80;45.10;;;;;;5001680;28;19910;-74
2023/02/12 04:26:17;;;;;;;;;;;17.80;45.00;;;;;;5001636;28;19909;-76
2023/02/12 04:28:43;;;;;;;;;;;17.80;45.00;;;;;;5001759;28;19909;-74
2023/02/12 04:31:17;;;;;;;;;;;17.90;45.00;;;;;;5000339;28;20142;-74
2023/02/12 04:33:48;;;;;;;;;;;17.90;44.90;;;;;;5001653;28;19902;-76
2023/02/12 04:36:33;;;;;;;;;;;18.00;44.80;;;;;;5001438;28;19909;-74
2023/02/12 04:39:02;;;;;;;;;;;18.00;44.70;;;;;;5003765;28;19910;-73
2023/02/12 04:41:29;;;;;;;;;;;18.00;44.60;;;;;;5005681;28;19936;-76
2023/02/12 04:43:54;;;;;;;;;;;18.00;44.60;;;;;;5005783;28;20049;-74
2023/02/12 04:46:20;;;;;;;;;;;18.00;44.50;;;;;;5005586;28;19969;-75
2023/02/12 04:48:56;;;;;;;;;;;17.90;45.30;;;;;;5005260;28;19906;-76
2023/02/12 04:51:22;;;;;;;;;;;17.80;44.90;;;;;;5005178;28;20109;-74
2023/02/12 04:53:48;;;;;;;;;;;17.70;45.30;;;;;;5005151;28;19921;-74
2023/02/12 04:56:14;;;;;;;;;;;17.50;45.30;;;;;;5005152;28;19976;-76
2023/02/12 04:58:40;;;;;;;;;;;17.50;45.60;;;;;;5005338;28;19969;-70
2023/02/12 05:01:06;;;;;;;;;;;17.40;45.70;;;;;;5004994;28;19906;-76
2023/02/12 05:03:32;;;;;;;;;;;17.30;45.80;;;;;;5005077;28;19913;-74
2023/02/12 05:06:04;;;;;;;;;;;17.30;46.00;;;;;;5005023;28;20292;-74
2023/02/12 05:08:30;;;;;;;;;;;17.30;46.10;;;;;;5004935;28;19967;-74
2023/02/12 05:10:55;;;;;;;;;;;17.20;46.20;;;;;;5004694;28;19933;-75
2023/02/12 05:13:21;;;;;;;;;;;17.20;46.30;;;;;;5004838;28;19972;-76
2023/02/12 05:15:46;;;;;;;;;;;17.10;46.40;;;;;;5004840;28;19908;-75
2023/02/12 05:18:12;;;;;;;;;;;17.10;46.40;;;;;;5004635;28;20336;-75
2023/02/12 05:20:37;;;;;;;;;;;17.10;46.50;;;;;;5004573;28;20440;-74
2023/02/12 05:23:03;;;;;;;;;;;17.10;46.50;;;;;;5004463;28;20138;-73
2023/02/12 05:25:30;;;;;;;;;;;17.20;46.40;;;;;;5004600;28;20212;-75
2023/02/12 05:27:56;;;;;;;;;;;17.30;46.30;;;;;;5004608;28;19910;-76
2023/02/12 05:30:21;;;;;;;;;;;17.40;46.20;;;;;;5003357;28;20133;-75
2023/02/12 05:32:47;;;;;;;;;;;17.50;46.00;;;;;;5004527;28;19901;-76
2023/02/12 05:35:12;;;;;;;;;;;17.50;45.80;;;;;;5004400;28;20130;-75
2023/02/12 05:37:38;;;;;;;;;;;17.70;45.70;;;;;;5004373;28;19910;-73
2023/02/12 05:40:04;;;;;;;;;;;17.60;45.50;;;;;;5004296;28;19945;-75
2023/02/12 05:42:30;;;;;;;;;;;17.70;45.50;;;;;;5004325;28;19913;-74
2023/02/12 05:44:55;;;;;;;;;;;17.70;45.40;;;;;;5004403;28;19956;-76
2023/02/12 05:47:21;;;;;;;;;;;17.70;45.30;;;;;;5004423;28;19952;-76
2023/02/12 05:49:46;;;;;;;;;;;17.80;45.10;;;;;;5003798;28;19973;-75
2023/02/12 05:52:12;;;;;;;;;;;17.80;45.00;;;;;;5004237;28;19913;-75
2023/02/12 05:54:37;;;;;;;;;;;17.90;44.90;;;;;;5004287;28;19929;-76
2023/02/12 05:57:03;;;;;;;;;;;17.90;44.90;;;;;;5004148;28;20220;-74
2023/02/12 05:59:28;;;;;;;;;;;17.90;44.80;;;;;;5004053;28;20244;-74
2023/02/12 06:01:54;;;;;;;;;;;17.90;44.80;;;;;;5004090;28;20189;-74
2023/02/12 06:04:25;;;;;;;;;;;17.90;44.90;;;;;;5003994;28;19932;-73
2023/02/12 06:06:50;;;;;;;;;;;17.90;44.80;;;;;;5003852;28;19948;-75
2023/02/12 06:09:16;;;;;;;;;;;17.80;44.80;;;;;;5003837;28;19910;-74
2023/02/12 06:11:42;;;;;;;;;;;17.70;45.00;;;;;;5003758;28;19909;-74
2023/02/12 06:14:10;;;;;;;;;;;17.60;45.10;;;;;;5003760;28;19905;-76
2023/02/12 06:16:35;;;;;;;;;;;17.50;45.30;;;;;;5003615;28;19918;-75
2023/02/12 06:19:03;;;;;;;;;;;17.40;45.60;;;;;;5003539;28;19945;-75
2023/02/12 06:21:30;;;;;;;;;;;17.40;45.90;;;;;;5003483;28;20198;-75
2023/02/12 06:23:55;;;;;;;;;;;17.30;46.00;;;;;;5003434;28;19901;-76
2023/02/12 06:26:21;;;;;;;;;;;17.20;46.00;;;;;;5003315;28;19948;-75
2023/02/12 06:28:47;;;;;;;;;;;17.20;46.30;;;;;;5003359;28;19910;-75
2023/02/12 06:31:26;;;;;;;;;;;17.10;46.60;;;;;;5003485;28;20243;-73
2023/02/12 06:33:52;;;;;;;;;;;17.10;46.40;;;;;;5002142;28;20359;-76
2023/02/12 06:36:17;;;;;;;;;;;17.10;46.50;;;;;;5003330;28;19910;-76
2023/02/12 06:38:43;;;;;;;;;;;17.10;46.60;;;;;;5003229;28;19932;-77
2023/02/12 06:41:09;;;;;;;;;;;17.10;46.60;;;;;;5001785;28;19909;-74
2023/02/12 06:43:35;;;;;;;;;;;17.10;46.60;;;;;;5003200;28;19945;-74
2023/02/12 06:46:01;;;;;;;;;;;17.10;46.60;;;;;;5001815;28;19902;-75
2023/02/12 06:48:26;;;;;;;;;;;17.10;46.50;;;;;;5001611;28;19910;-74
2023/02/12 06:50:52;;;;;;;;;;;17.20;46.50;;;;;;5002936;28;19910;-73
2023/02/12 06:53:17;;;;;;;;;;;17.40;46.40;;;;;;5002702;28;19921;-77
2023/02/12 06:55:43;;;;;;;;;;;17.40;46.10;;;;;;5002905;28;19996;-75
2023/02/12 06:58:09;;;;;;;;;;;17.60;46.00;;;;;;5002859;28;19902;-75
2023/02/12 07:00:34;;;;;;;;;;;17.60;45.80;;;;;;5002829;28;19914;-76
2023/02/12 07:03:00;;;;;;;;;;;17.70;45.60;;;;;;5001822;28;19917;-71
2023/02/12 07:05:25;;;;;;;;;;;17.70;45.50;;;;;;5002839;28;20185;-75
2023/02/12 07:07:51;;;;;;;;;;;17.70;45.40;;;;;;5002678;28;19936;-75
2023/02/12 07:10:17;;;;;;;;;;;17.80;45.30;;;;;;5002600;28;19916;-75
2023/02/12 07:12:43;;;;;;;;;;;17.90;45.20;;;;;;5002472;28;20401;-74
2023/02/12 07:15:09;;;;;;;;;;;18.00;45.10;;;;;;5002567;28;19910;-75
2023/02/12 07:17:34;;;;;;;;;;;18.00;45.00;;;;;;5002432;28;19917;-75
2023/02/12 07:20:00;;;;;;;;;;;18.00;44.80;;;;;;5002435;28;19943;-75
2023/02/12 07:22:25;;;;;;;;;;;18.10;44.70;;;;;;5002411;28;19932;-76
2023/02/12 07:24:51;;;;;;;;;;;18.00;44.70;;;;;;5002355;28;20213;-76
2023/02/12 07:27:16;;;;;;;;;;;17.90;44.90;;;;;;5002343;28;20176;-74
2023/02/12 07:29:42;;;;;;;;;;;17.80;44.90;;;;;;5002239;28;19910;-75
2023/02/12 07:32:08;;;;;;;;;;;17.70;45.10;;;;;;5002263;28;19917;-75
2023/02/12 07:34:33;;;;;;;;;;;17.60;45.40;;;;;;5002319;28;19909;-74
2023/02/12 07:36:59;;;;;;;;;;;17.50;45.50;;;;;;5002308;28;19901;-75
2023/02/12 07:39:24;;;;;;;;;;;17.40;45.70;;;;;;5000947;28;19968;-76
2023/02/12 07:41:50;;;;;;;;;;;17.30;45.90;;;;;;5002373;28;19902;-73
2023/02/12 07:44:15;;;;;;;;;;;17.30;46.10;;;;;;5000817;28;19980;-75
2023/02/12 07:46:42;;;;;;;;;;;17.30;46.20;;;;;;5001877;28;19917;-73
2023/02/12 07:49:10;;;;;;;;;;;17.30;46.20;;;;;;5001930;28;19916;-74
2023/02/12 07:51:36;;;;;;;;;;;17.20;46.30;;;;;;5001966;28;20016;-74
2023/02/12 07:54:02;;;;;;;;;;;17.20;46.40;;;;;;5002055;28;19906;-77
2023/02/12 07:56:31;;;;;;;;;;;17.10;46.40;;;;;;5001948;28;19910;-76
2023/02/12 07:59:00;;;;;;;;;;;17.20;46.40;;;;;;5002007;28;19976;-75
2023/02/12 08:01:30;;;;;;;;;;;17.30;46.40;;;;;;5001750;28;19918;-72
2023/02/12 08:03:59;;;;;;;;;;;17.30;46.30;;;;;;5001966;28;19906;-76
2023/02/12 08:06:27;;;;;;;;;;;17.50;46.20;;;;;;5001711;28;19901;-75
2023/02/12 08:08:53;;;;;;;;;;;17.60;46.00;;;;;;5001727;28;19928;-76
2023/02/12 08:11:21;;;;;;;;;;;17.80;45.90;;;;;;5001527;28;20160;-75
2023/02/12 08:13:46;;;;;;;;;;;17.90;45.60;;;;;;5001333;28;20122;-74
2023/02/12 08:16:13;;;;;;;;;;;18.00;45.40;;;;;;5001682;28;19920;-75
2023/02/12 08:18:39;;;;;;;;;;;18.00;45.20;;;;;;5000528;28;20129;-75
2023/02/12 08:21:07;;;;;;;;;;;18.10;45.20;;;;;;5001842;28;19906;-75
2023/02/12 08:23:33;;;;;;;;;;;18.10;45.10;;;;;;5001801;28;19902;-75
2023/02/12 08:26:08;;;;;;;;;;;18.20;44.90;;;;;;5001788;28;19932;-73
2023/02/12 08:28:34;;;;;;;;;;;18.30;44.80;;;;;;5001656;28;19916;-76
2023/02/12 08:31:01;;;;;;;;;;;18.30;44.70;;;;;;5001626;28;19909;-75
2023/02/12 08:33:27;;;;;;;;;;;18.40;44.60;;;;;;5001593;28;19914;-75
2023/02/12 08:36:04;;;;;;;;;;;18.40;44.40;;;;;;5001525;28;19916;-75
2023/02/12 08:38:30;;;;;;;;;;;18.40;44.50;;;;;;5000531;28;19917;-75
2023/02/12 08:40:59;;;;;;;;;;;18.30;44.50;;;;;;5001497;28;19944;-76
2023/02/12 08:43:25;;;;;;;;;;;18.20;44.60;;;;;;5001391;28;20249;-74
2023/02/12 08:45:51;;;;;;;;;;;18.20;44.80;;;;;;5001489;28;19991;-75
2023/02/12 08:48:16;;;;;;;;;;;18.00;44.90;;;;;;5001419;28;19910;-76
2023/02/12 08:50:42;;;;;;;;;;;18.00;45.10;;;;;;5001350;28;19920;-76
2023/02/12 08:53:08;;;;;;;;;;;17.90;45.20;;;;;;5001190;28;19945;-75
2023/02/12 08:55:34;;;;;;;;;;;17.90;45.30;;;;;;5001325;28;19913;-75
2023/02/12 08:58:01;;;;;;;;;;;17.80;45.30;;;;;;5001223;28;19967;-74
2023/02/12 09:00:27;;;;;;;;;;;17.80;45.30;;;;;;4999892;28;19905;-75
2023/02/12 09:02:52;;;;;;;;;;;17.80;45.30;;;;;;5001223;28;19909;-74
2023/02/12 09:05:18;;;;;;;;;;;17.80;45.40;;;;;;5001199;28;19910;-73
2023/02/12 09:07:43;;;;;;;;;;;17.80;45.50;;;;;;5001095;28;19909;-75
2023/02/12 09:10:09;;;;;;;;;;;17.80;45.50;;;;;;5001115;28;20000;-75
2023/02/12 09:12:34;;;;;;;;;;;17.80;45.40;;;;;;5001048;28;19917;-75
2023/02/12 09:15:00;;;;;;;;;;;17.80;45.60;;;;;;5001023;28;19945;-74
2023/02/12 09:17:26;;;;;;;;;;;17.80;45.40;;;;;;5001220;28;19910;-73
2023/02/12 09:19:52;;;;;;;;;;;17.80;45.50;;;;;;5001051;28;19910;-76
2023/02/12 09:22:18;;;;;;;;;;;17.70;45.50;;;;;;5001132;28;19912;-75
2023/02/12 09:24:43;;;;;;;;;;;17.70;45.40;;;;;;5001216;28;19941;-72
2023/02/12 09:27:09;;;;;;;;;;;17.80;45.50;;;;;;5004615;28;19944;-75
2023/02/12 09:29:34;;;;;;;;;;;17.80;45.40;;;;;;5004663;28;19981;-75
2023/02/12 09:32:03;;;;;;;;;;;17.70;45.40;;;;;;5004525;28;19982;-74
2023/02/12 09:34:29;;;;;;;;;;;17.70;45.50;;;;;;5004701;28;19960;-74
2023/02/12 09:36:54;;;;;;;;;;;17.80;45.40;;;;;;5004638;28;19907;-76
2023/02/12 09:39:20;;;;;;;;;;;17.90;45.30;;;;;;5004497;28;19917;-73
2023/02/12 09:41:51;;;;;;;;;;;18.00;45.30;;;;;;5004469;28;19917;-76
2023/02/12 09:44:29;;;;;;;;;;;18.10;45.10;;;;;;5004331;28;19924;-74
2023/02/12 09:47:10;;;;;;;;;;;18.20;44.90;;;;;;5004239;28;19941;-75
2023/02/12 09:49:54;;;;;;;;;;;18.20;44.80;;;;;;5003045;28;19913;-76
2023/02/12 09:52:23;;;;;;;;;;;18.30;44.60;;;;;;5004032;28;19913;-75
2023/02/12 09:54:49;;;;;;;;;;;18.30;44.60;;;;;;5004251;28;19914;-75
2023/02/12 09:57:20;;;;;;;;;;;18.30;44.60;;;;;;5004212;28;19936;-75
2023/02/12 09:59:48;;;;;;;;;;;18.30;44.60;;;;;;5004096;28;19909;-77
2023/02/12 10:02:15;;;;;;;;;;;18.40;44.60;;;;;;5004111;28;19956;-74
2023/02/12 10:04:42;;;;;;;;;;;18.40;45.10;;;;;;5004112;28;19910;-72
2023/02/12 10:07:17;;;;;;;;;;;18.40;44.50;;;;;;5004088;28;19902;-75
2023/02/12 10:09:46;;;;;;;;;;;18.30;44.50;;;;;;5003954;28;19961;-75
2023/02/12 10:12:18;;;;;;;;;;;18.30;44.70;;;;;;5003829;28;19909;-75
2023/02/12 10:15:02;;;;;;;;;;;18.20;44.80;;;;;;5003764;28;19950;-74
2023/02/12 10:17:34;;;;;;;;;;;18.20;44.90;;;;;;5003785;28;19906;-74
2023/02/12 10:20:00;;;;;;;;;;;18.20;45.00;;;;;;5003746;28;19992;-75
2023/02/12 10:22:28;;;;;;;;;;;18.20;45.00;;;;;;5003764;28;19902;-75
2023/02/12 10:25:16;;;;;;;;;;;18.10;45.00;;;;;;5003622;28;19916;-74
2023/02/12 10:27:46;;;;;;;;;;;18.10;45.10;;;;;;5003339;28;19909;-74
2023/02/12 10:30:17;;;;;;;;;;;18.10;45.20;;;;;;5003524;28;19924;-75
2023/02/12 10:32:43;;;;;;;;;;;18.10;45.30;;;;;;5003439;28;19910;-74
2023/02/12 10:35:13;;;;;;;;;;;18.00;45.20;;;;;;5003418;28;19910;-75
2023/02/12 10:37:41;;;;;;;;;;;18.00;45.20;;;;;;5003209;28;19909;-74
2023/02/12 10:40:16;;;;;;;;;;;18.00;45.20;;;;;;5003253;28;19956;-75
2023/02/12 10:42:43;;;;;;;;;;;18.00;45.20;;;;;;5003384;28;19914;-75
2023/02/12 10:45:13;;;;;;;;;;;18.00;45.20;;;;;;5003228;28;19910;-75
2023/02/12 10:47:39;;;;;;;;;;;18.00;45.20;;;;;;5003086;28;20087;-74
2023/02/12 10:50:14;;;;;;;;;;;18.00;45.20;;;;;;5003175;28;19909;-76
2023/02/12 10:53:06;;;;;;;;;;;18.00;45.20;;;;;;5003077;28;19934;-74
2023/02/12 10:55:33;;;;;;;;;;;18.00;45.20;;;;;;4987409;28;20141;-76
2023/02/12 10:57:59;;;;;;;;;;;18.00;45.30;;;;;;5003066;28;19910;-74
2023/02/12 11:00:30;;;;;;;;;;;18.00;45.20;;;;;;5001600;28;19924;-72
2023/02/12 11:03:05;;;;;;;;;;;18.00;45.20;;;;;;5002860;28;19921;-74
2023/02/12 11:05:32;;;;;;;;;;;18.00;45.20;;;;;;5002923;28;20041;-72
2023/02/12 11:07:57;;;;;;;;;;;18.00;45.20;;;;;;5002643;28;19914;-73
2023/02/12 11:10:26;;;;;;;;;;;18.00;45.20;;;;;;5002884;28;19948;-74
2023/02/12 11:12:52;;;;;;;;;;;18.00;45.20;;;;;;5002767;28;19933;-75
2023/02/12 11:15:19;;;;;;;;;;;18.10;45.20;;;;;;5001571;28;20087;-75
2023/02/12 11:17:54;;;;;;;;;;;18.10;45.20;;;;;;5002753;28;19902;-73
2023/02/12 11:20:24;;;;;;;;;;;18.10;45.30;;;;;;5001698;28;19917;-75
2023/02/12 11:22:50;;;;;;;;;;;18.10;45.30;;;;;;5002798;28;19902;-76
2023/02/12 11:25:16;;;;;;;;;;;18.10;45.10;;;;;;5002710;28;19977;-72
2023/02/12 11:27:42;;;;;;;;;;;18.10;45.30;;;;;;5001674;28;19901;-77
2023/02/12 11:30:14;;;;;;;;;;;18.10;45.40;;;;;;5001460;28;19916;-73
2023/02/12 11:32:40;;;;;;;;;;;18.10;45.30;;;;;;5002715;28;20145;-74
2023/02/12 11:35:22;;;;;;;;;;;18.10;45.50;;;;;;5002575;28;19901;-74
2023/02/12 11:37:48;;;;;;;;;;;18.00;45.40;;;;;;5002617;28;20114;-76
2023/02/12 11:40:25;;;;;;;;;;;18.00;45.50;;;;;;5002393;28;19914;-73
2023/02/12 11:42:53;;;;;;;;;;;18.00;45.50;;;;;;5002447;28;19901;-73
2023/02/12 11:45:19;;;;;;;;;;;18.00;45.60;;;;;;5002475;28;19910;-74
2023/02/12 11:47:46;;;;;;;;;;;18.10;45.50;;;;;;5001765;28;20239;-76
2023/02/12 11:50:14;;;;;;;;;;;18.20;45.40;;;;;;5002358;28;19910;-74
2023/02/12 11:52:40;;;;;;;;;;;18.20;45.30;;;;;;5001019;28;19937;-74
2023/02/12 11:55:26;;;;;;;;;;;18.30;45.20;;;;;;5002231;28;19901;-75
2023/02/12 11:57:54;;;;;;;;;;;18.40;45.20;;;;;;4995365;28;19933;-76
2023/02/12 12:00:32;;;;;;;;;;;18.40;44.90;;;;;;5002162;28;19921;-74
2023/02/12 12:02:57;;;;;;;;;;;18.40;44.80;;;;;;5002199;28;19960;-75
2023/02/12 12:05:27;;;;;;;;;;;18.50;44.90;;;;;;5002063;28;20220;-75
2023/02/12 12:07:58;;;;;;;;;;;18.50;44.80;;;;;;5002361;28;20130;-75
2023/02/12 12:10:30;;;;;;;;;;;18.50;44.80;;;;;;5002157;28;19910;-73
2023/02/12 12:12:57;;;;;;;;;;;18.50;44.90;;;;;;5002179;28;19969;-77
2023/02/12 12:21:03;;;;;;;;;;;18.40;45.10;;;;;;5001794;28;19921;-73
2023/02/12 12:23:38;;;;;;;;;;;18.40;45.20;;;;;;5002083;28;19909;-76
2023/02/12 12:26:09;;;;;;;;;;;18.30;45.20;;;;;;5001954;28;20032;-74
2023/02/12 12:28:41;;;;;;;;;;;18.30;45.30;;;;;;5001861;28;19910;-74
2023/02/12 12:31:06;;;;;;;;;;;18.30;45.30;;;;;;5001713;28;19969;-75
2023/02/12 12:33:38;;;;;;;;;;;18.30;45.40;;;;;;5001601;28;19910;-73
2023/02/12 12:36:06;;;;;;;;;;;18.30;45.40;;;;;;5001781;28;19922;-74
2023/02/12 12:38:32;;;;;;;;;;;18.30;45.50;;;;;;5001674;28;19902;-76
2023/02/12 12:41:17;;;;;;;;;;;18.20;45.50;;;;;;5001762;28;20168;-73
2023/02/12 12:43:57;;;;;;;;;;;18.20;45.50;;;;;;5001705;28;20217;-73
2023/02/12 12:46:23;;;;;;;;;;;18.20;45.50;;;;;;5001723;28;20232;-73
2023/02/12 12:48:58;;;;;;;;;;;18.20;45.50;;;;;;5000262;28;19910;-75
2023/02/12 12:51:23;;;;;;;;;;;18.20;45.60;;;;;;5001621;28;19909;-75
2023/02/12 12:54:13;;;;;;;;;;;18.20;45.60;;;;;;5001841;28;20124;-75
2023/02/12 12:56:45;;;;;;;;;;;18.20;45.60;;;;;;4996358;28;19936;-75
2023/02/12 12:59:10;;;;;;;;;;;18.20;46.20;;;;;;5002371;28;19916;-75
2023/02/12 13:01:36;;;;;;;;;;;18.30;45.60;;;;;;5005201;28;19945;-73
2023/02/12 13:04:20;;;;;;;;;;;18.30;45.60;;;;;;5005339;28;19902;-75
2023/02/12 13:06:49;;;;;;;;;;;18.30;45.60;;;;;;5003976;28;19917;-74
2023/02/12 13:09:18;;;;;;;;;;;18.40;45.50;;;;;;5005238;28;19902;-74
2023/02/12 13:11:46;;;;;;;;;;;18.40;45.40;;;;;;5005359;28;19916;-74
2023/02/12 13:14:13;;;;;;;;;;;18.50;45.20;;;;;;5005165;28;19902;-73
2023/02/12 13:16:44;;;;;;;;;;;18.60;45.10;;;;;;5005568;28;19910;-74
2023/02/12 13:19:14;;;;;;;;;;;18.60;45.10;;;;;;5004122;28;20295;-74
2023/02/12 13:21:46;;;;;;;;;;;18.60;45.00;;;;;;5004151;28;19921;-73
2023/02/12 13:24:15;;;;;;;;;;;18.60;45.60;;;;;;5004188;28;19948;-75
2023/02/12 13:26:44;;;;;;;;;;;18.60;44.90;;;;;;5005344;28;19928;-73
2023/02/12 13:29:38;;;;;;;;;;;18.60;44.90;;;;;;5005125;28;20209;-74
2023/02/12 13:32:11;;;;;;;;;;;18.70;44.90;;;;;;5002759;28;19906;-75
2023/02/12 13:34:38;;;;;;;;;;;18.70;44.80;;;;;;5004990;28;19961;-73
2023/02/12 13:37:05;;;;;;;;;;;18.80;44.70;;;;;;5005097;28;19917;-72
2023/02/12 13:39:35;;;;;;;;;;;18.80;44.60;;;;;;5004776;28;19941;-73
2023/02/12 13:42:08;;;;;;;;;;;18.90;44.50;;;;;;5004732;28;19909;-75
2023/02/12 13:44:37;;;;;;;;;;;18.90;44.40;;;;;;5004790;28;20231;-72
2023/02/12 13:47:03;;;;;;;;;;;19.00;44.30;;;;;;5003519;28;19902;-74
2023/02/12 13:49:31;;;;;;;;;;;19.00;44.20;;;;;;5004585;28;19910;-74
2023/02/12 13:52:00;;;;;;;;;;;19.10;44.20;;;;;;5004589;28;19988;-74
2023/02/12 13:54:32;;;;;;;;;;;19.10;44.10;;;;;;5004510;28;19902;-74
2023/02/12 13:57:00;;;;;;;;;;;19.10;44.00;;;;;;5004377;28;19908;-73
2023/02/12 13:59:34;;;;;;;;;;;19.20;44.00;;;;;;5003985;28;19937;-74
2023/02/12 14:02:03;;;;;;;;;;;19.20;43.90;;;;;;5004420;28;19909;-74
2023/02/12 14:04:34;;;;;;;;;;;19.20;43.80;;;;;;5004344;28;19909;-74
2023/02/12 14:07:01;;;;;;;;;;;19.00;44.20;;;;;;5004322;28;20007;-72
2023/02/12 14:09:34;;;;;;;;;;;19.00;44.30;;;;;;5002997;28;19909;-72
2023/02/12 14:12:02;;;;;;;;;;;19.10;44.20;;;;;;5003837;28;19917;-74
2023/02/12 14:14:32;;;;;;;;;;;19.20;44.10;;;;;;5002911;28;19913;-75
2023/02/12 14:17:18;;;;;;;;;;;19.20;44.10;;;;;;5004228;28;19909;-75
2023/02/12 14:19:53;;;;;;;;;;;19.20;44.10;;;;;;5003992;28;19921;-76
2023/02/12 14:22:41;;;;;;;;;;;19.20;44.00;;;;;;5004086;28;19932;-74
2023/02/12 14:25:13;;;;;;;;;;;19.20;44.10;;;;;;4997371;28;19913;-72
2023/02/12 14:27:46;;;;;;;;;;;19.20;44.20;;;;;;5003840;28;19980;-73
2023/02/12 14:30:12;;;;;;;;;;;19.10;44.20;;;;;;5003883;28;19944;-75
2023/02/12 14:32:43;;;;;;;;;;;19.20;44.20;;;;;;5003921;28;19910;-73
2023/02/12 14:35:28;;;;;;;;;;;19.20;44.10;;;;;;5002547;28;19956;-74